In Rescue
 
Open Full Screen Window  High Contrast Mode
Wind Gusting 00 knots
06
October 25, 2021 3:41 PM CDT
Weather Information
Wind Direction
  080 °
Wind Speed
  06 kt (7 mph)
Wind Gust
  00 kt (0 mph)
Altimeter
30.11 in
Visibility
10 SM
Temperature
12° C
54° F
Dewpoint
-03° C
27° F
Humidity
35%
1hr Rain Fall
00.00 in.
24hr Rain Fall
00.00 in.
Sky Condition
Clear
VFR

METAR KSYN 252041Z AUTO 08006KT 10SM CLR 12/M03 A3011 RMK AO2 T01181027

FAA Disclaimer: The data displayed is for advisory purposes only and is not to be used for flight planning or operations.